sensor_id;sensor_type;location;lat;lon;timestamp;temperature;humidity
80579;SHT31;69939;52.402;6.608;2023-05-23T00:01:52;14.54;90.85
80579;SHT31;69939;52.402;6.608;2023-05-23T00:04:24;14.55;91.00
80579;SHT31;69939;52.402;6.608;2023-05-23T00:06:52;14.51;91.29
80579;SHT31;69939;52.402;6.608;2023-05-23T00:09:20;14.44;91.56
80579;SHT31;69939;52.402;6.608;2023-05-23T00:11:47;14.44;91.70
80579;SHT31;69939;52.402;6.608;2023-05-23T00:14:15;14.48;91.57
80579;SHT31;69939;52.402;6.608;2023-05-23T00:16:44;14.55;91.57
80579;SHT31;69939;52.402;6.608;2023-05-23T00:19:15;14.49;91.90
80579;SHT31;69939;52.402;6.608;2023-05-23T00:21:42;14.48;92.26
80579;SHT31;69939;52.402;6.608;2023-05-23T00:24:09;14.55;92.03
80579;SHT31;69939;52.402;6.608;2023-05-23T00:26:37;14.44;92.22
80579;SHT31;69939;52.402;6.608;2023-05-23T00:29:05;14.45;92.22
80579;SHT31;69939;52.402;6.608;2023-05-23T00:31:31;14.41;92.28
80579;SHT31;69939;52.402;6.608;2023-05-23T00:33:58;14.45;92.04
80579;SHT31;69939;52.402;6.608;2023-05-23T00:36:26;14.48;92.14
80579;SHT31;69939;52.402;6.608;2023-05-23T00:38:53;14.52;91.84
80579;SHT31;69939;52.402;6.608;2023-05-23T00:41:20;14.51;92.11
80579;SHT31;69939;52.402;6.608;2023-05-23T00:43:49;14.49;92.28
80579;SHT31;69939;52.402;6.608;2023-05-23T00:46:16;14.54;91.91
80579;SHT31;69939;52.402;6.608;2023-05-23T00:48:43;14.37;92.50
80579;SHT31;69939;52.402;6.608;2023-05-23T00:51:11;14.37;92.64
80579;SHT31;69939;52.402;6.608;2023-05-23T00:53:41;14.27;92.67
80579;SHT31;69939;52.402;6.608;2023-05-23T00:56:08;14.23;92.87
80579;SHT31;69939;52.402;6.608;2023-05-23T00:58:36;14.04;93.60
80579;SHT31;69939;52.402;6.608;2023-05-23T01:01:04;13.93;93.54
80579;SHT31;69939;52.402;6.608;2023-05-23T01:03:34;13.99;93.56
80579;SHT31;69939;52.402;6.608;2023-05-23T01:06:02;14.00;93.58
80579;SHT31;69939;52.402;6.608;2023-05-23T01:08:37;13.99;93.53
80579;SHT31;69939;52.402;6.608;2023-05-23T01:11:08;13.90;93.94
80579;SHT31;69939;52.402;6.608;2023-05-23T01:13:46;13.93;94.01
80579;SHT31;69939;52.402;6.608;2023-05-23T01:16:28;13.95;93.90
80579;SHT31;69939;52.402;6.608;2023-05-23T01:19:08;13.91;93.52
80579;SHT31;69939;52.402;6.608;2023-05-23T01:21:54;13.91;93.75
80579;SHT31;69939;52.402;6.608;2023-05-23T01:24:35;13.87;94.33
80579;SHT31;69939;52.402;6.608;2023-05-23T01:27:22;13.85;93.82
80579;SHT31;69939;52.402;6.608;2023-05-23T01:29:57;13.77;94.01
80579;SHT31;69939;52.402;6.608;2023-05-23T01:32:27;13.76;94.32
80579;SHT31;69939;52.402;6.608;2023-05-23T01:34:56;13.69;94.40
80579;SHT31;69939;52.402;6.608;2023-05-23T01:37:24;13.58;95.02
80579;SHT31;69939;52.402;6.608;2023-05-23T01:39:51;13.52;94.85
80579;SHT31;69939;52.402;6.608;2023-05-23T01:42:19;13.52;95.74
80579;SHT31;69939;52.402;6.608;2023-05-23T01:44:46;13.37;96.00
80579;SHT31;69939;52.402;6.608;2023-05-23T01:47:17;13.25;96.80
80579;SHT31;69939;52.402;6.608;2023-05-23T01:49:44;13.27;97.05
80579;SHT31;69939;52.402;6.608;2023-05-23T01:52:13;13.29;97.59
80579;SHT31;69939;52.402;6.608;2023-05-23T01:54:42;13.22;98.37
80579;SHT31;69939;52.402;6.608;2023-05-23T01:57:13;13.15;98.16
80579;SHT31;69939;52.402;6.608;2023-05-23T01:59:41;13.24;98.36
80579;SHT31;69939;52.402;6.608;2023-05-23T02:02:10;13.20;98.46
80579;SHT31;69939;52.402;6.608;2023-05-23T02:04:47;13.12;98.23
80579;SHT31;69939;52.402;6.608;2023-05-23T02:07:16;13.15;98.29
80579;SHT31;69939;52.402;6.608;2023-05-23T02:09:48;13.21;98.58
80579;SHT31;69939;52.402;6.608;2023-05-23T02:12:15;13.17;98.15
80579;SHT31;69939;52.402;6.608;2023-05-23T02:14:42;13.10;98.19
80579;SHT31;69939;52.402;6.608;2023-05-23T02:17:09;13.10;98.40
80579;SHT31;69939;52.402;6.608;2023-05-23T02:19:36;13.03;98.28
80579;SHT31;69939;52.402;6.608;2023-05-23T02:22:04;13.01;98.11
80579;SHT31;69939;52.402;6.608;2023-05-23T02:24:31;13.07;97.91
80579;SHT31;69939;52.402;6.608;2023-05-23T02:26:58;13.11;97.98
80579;SHT31;69939;52.402;6.608;2023-05-23T02:29:26;13.07;97.74
80579;SHT31;69939;52.402;6.608;2023-05-23T02:31:53;13.11;97.86
80579;SHT31;69939;52.402;6.608;2023-05-23T02:34:20;13.10;97.66
80579;SHT31;69939;52.402;6.608;2023-05-23T02:36:46;13.12;97.51
80579;SHT31;69939;52.402;6.608;2023-05-23T02:39:17;13.12;97.25
80579;SHT31;69939;52.402;6.608;2023-05-23T02:41:44;13.15;97.01
80579;SHT31;69939;52.402;6.608;2023-05-23T02:44:11;13.14;96.82
80579;SHT31;69939;52.402;6.608;2023-05-23T02:46:38;13.12;96.99
80579;SHT31;69939;52.402;6.608;2023-05-23T02:49:05;13.15;97.04
80579;SHT31;69939;52.402;6.608;2023-05-23T02:51:31;13.10;97.37
80579;SHT31;69939;52.402;6.608;2023-05-23T02:53:59;13.15;97.31
80579;SHT31;69939;52.402;6.608;2023-05-23T02:56:27;13.10;97.06
80579;SHT31;69939;52.402;6.608;2023-05-23T02:58:54;13.12;96.85
80579;SHT31;69939;52.402;6.608;2023-05-23T03:01:21;13.11;96.94
80579;SHT31;69939;52.402;6.608;2023-05-23T03:03:48;13.12;96.86
80579;SHT31;69939;52.402;6.608;2023-05-23T03:06:15;13.07;96.96
80579;SHT31;69939;52.402;6.608;2023-05-23T03:08:42;13.03;97.50
80579;SHT31;69939;52.402;6.608;2023-05-23T03:11:10;13.01;97.47
80579;SHT31;69939;52.402;6.608;2023-05-23T03:13:38;13.00;97.91
80579;SHT31;69939;52.402;6.608;2023-05-23T03:16:06;13.01;97.75
80579;SHT31;69939;52.402;6.608;2023-05-23T03:18:33;13.04;97.60
80579;SHT31;69939;52.402;6.608;2023-05-23T03:21:02;12.91;97.78
80579;SHT31;69939;52.402;6.608;2023-05-23T03:23:29;12.96;97.88
80579;SHT31;69939;52.402;6.608;2023-05-23T03:25:56;12.93;98.28
80579;SHT31;69939;52.402;6.608;2023-05-23T03:28:24;12.89;97.98
80579;SHT31;69939;52.402;6.608;2023-05-23T03:30:52;12.97;98.84
80579;SHT31;69939;52.402;6.608;2023-05-23T03:33:19;12.83;98.08
80579;SHT31;69939;52.402;6.608;2023-05-23T03:35:46;12.76;97.92
80579;SHT31;69939;52.402;6.608;2023-05-23T03:38:13;12.77;98.27
80579;SHT31;69939;52.402;6.608;2023-05-23T03:40:43;12.79;98.50
80579;SHT31;69939;52.402;6.608;2023-05-23T03:43:12;12.76;98.23
80579;SHT31;69939;52.402;6.608;2023-05-23T03:45:40;12.72;98.12
80579;SHT31;69939;52.402;6.608;2023-05-23T03:48:09;12.73;98.08
80579;SHT31;69939;52.402;6.608;2023-05-23T03:50:38;12.75;98.03
80579;SHT31;69939;52.402;6.608;2023-05-23T03:53:05;12.73;97.60
80579;SHT31;69939;52.402;6.608;2023-05-23T03:55:32;12.73;96.90
80579;SHT31;69939;52.402;6.608;2023-05-23T03:57:59;12.72;97.26
80579;SHT31;69939;52.402;6.608;2023-05-23T04:00:26;12.73;97.37
80579;SHT31;69939;52.402;6.608;2023-05-23T04:02:54;12.67;96.80
80579;SHT31;69939;52.402;6.608;2023-05-23T04:05:22;12.60;96.33
80579;SHT31;69939;52.402;6.608;2023-05-23T04:07:49;12.60;96.12
80579;SHT31;69939;52.402;6.608;2023-05-23T04:10:16;12.62;96.54
80579;SHT31;69939;52.402;6.608;2023-05-23T04:12:44;12.66;96.34
80579;SHT31;69939;52.402;6.608;2023-05-23T04:15:13;12.63;96.74
80579;SHT31;69939;52.402;6.608;2023-05-23T04:17:45;12.67;96.86
80579;SHT31;69939;52.402;6.608;2023-05-23T04:20:12;12.64;96.62
80579;SHT31;69939;52.402;6.608;2023-05-23T04:22:40;12.73;96.27
80579;SHT31;69939;52.402;6.608;2023-05-23T04:25:08;12.79;96.18
80579;SHT31;69939;52.402;6.608;2023-05-23T04:27:35;12.79;95.32
80579;SHT31;69939;52.402;6.608;2023-05-23T04:30:05;12.73;95.12
80579;SHT31;69939;52.402;6.608;2023-05-23T04:32:34;12.76;94.64
80579;SHT31;69939;52.402;6.608;2023-05-23T04:35:03;12.75;95.30
80579;SHT31;69939;52.402;6.608;2023-05-23T04:37:30;12.80;95.05
80579;SHT31;69939;52.402;6.608;2023-05-23T04:39:58;12.75;94.18
80579;SHT31;69939;52.402;6.608;2023-05-23T04:42:25;12.70;94.01
80579;SHT31;69939;52.402;6.608;2023-05-23T04:44:53;12.72;93.85
80579;SHT31;69939;52.402;6.608;2023-05-23T04:47:22;12.76;93.53
80579;SHT31;69939;52.402;6.608;2023-05-23T04:49:53;12.72;93.20
80579;SHT31;69939;52.402;6.608;2023-05-23T04:52:20;12.67;93.44
80579;SHT31;69939;52.402;6.608;2023-05-23T04:54:47;12.77;93.27
80579;SHT31;69939;52.402;6.608;2023-05-23T04:57:15;12.76;93.27
80579;SHT31;69939;52.402;6.608;2023-05-23T04:59:42;12.83;93.13
80579;SHT31;69939;52.402;6.608;2023-05-23T05:02:09;12.79;93.45
80579;SHT31;69939;52.402;6.608;2023-05-23T05:04:37;12.76;93.16
80579;SHT31;69939;52.402;6.608;2023-05-23T05:07:04;12.79;92.83
80579;SHT31;69939;52.402;6.608;2023-05-23T05:09:31;12.79;93.43
80579;SHT31;69939;52.402;6.608;2023-05-23T05:11:58;12.80;93.37
80579;SHT31;69939;52.402;6.608;2023-05-23T05:14:29;12.80;93.78
80579;SHT31;69939;52.402;6.608;2023-05-23T05:16:56;12.72;92.76
80579;SHT31;69939;52.402;6.608;2023-05-23T05:19:23;12.75;93.16
80579;SHT31;69939;52.402;6.608;2023-05-23T05:21:49;12.72;93.87
80579;SHT31;69939;52.402;6.608;2023-05-23T05:24:16;12.62;93.41
80579;SHT31;69939;52.402;6.608;2023-05-23T05:26:45;12.60;93.17
80579;SHT31;69939;52.402;6.608;2023-05-23T05:29:12;12.63;93.19
80579;SHT31;69939;52.402;6.608;2023-05-23T05:31:42;12.64;93.74
80579;SHT31;69939;52.402;6.608;2023-05-23T05:34:09;12.55;93.48
80579;SHT31;69939;52.402;6.608;2023-05-23T05:36:36;12.43;93.15
80579;SHT31;69939;52.402;6.608;2023-05-23T05:39:10;12.36;93.68
80579;SHT31;69939;52.402;6.608;2023-05-23T05:41:37;12.32;93.39
80579;SHT31;69939;52.402;6.608;2023-05-23T05:44:04;12.28;92.57
80579;SHT31;69939;52.402;6.608;2023-05-23T05:46:30;12.26;93.09
80579;SHT31;69939;52.402;6.608;2023-05-23T05:48:58;12.24;92.66
80579;SHT31;69939;52.402;6.608;2023-05-23T05:51:25;12.28;93.19
80579;SHT31;69939;52.402;6.608;2023-05-23T05:53:52;12.26;92.30
80579;SHT31;69939;52.402;6.608;2023-05-23T05:56:19;12.18;92.78
80579;SHT31;69939;52.402;6.608;2023-05-23T05:58:46;12.20;93.20
80579;SHT31;69939;52.402;6.608;2023-05-23T06:01:13;12.20;92.97
80579;SHT31;69939;52.402;6.608;2023-05-23T06:03:40;12.20;92.83
80579;SHT31;69939;52.402;6.608;2023-05-23T06:06:08;12.29;92.87
80579;SHT31;69939;52.402;6.608;2023-05-23T06:08:35;12.24;92.57
80579;SHT31;69939;52.402;6.608;2023-05-23T06:11:02;12.21;92.28
80579;SHT31;69939;52.402;6.608;2023-05-23T06:13:30;12.14;92.23
80579;SHT31;69939;52.402;6.608;2023-05-23T06:15:56;12.18;92.06
80579;SHT31;69939;52.402;6.608;2023-05-23T06:18:23;12.20;92.35
80579;SHT31;69939;52.402;6.608;2023-05-23T06:20:50;12.13;91.80
80579;SHT31;69939;52.402;6.608;2023-05-23T06:23:18;12.18;91.86
80579;SHT31;69939;52.402;6.608;2023-05-23T06:25:45;12.20;91.98
80579;SHT31;69939;52.402;6.608;2023-05-23T06:28:11;12.13;92.09
80579;SHT31;69939;52.402;6.608;2023-05-23T06:30:41;12.01;91.95
80579;SHT31;69939;52.402;6.608;2023-05-23T06:33:11;11.94;91.87
80579;SHT31;69939;52.402;6.608;2023-05-23T06:35:38;11.88;92.14
80579;SHT31;69939;52.402;6.608;2023-05-23T06:38:04;11.90;91.48
80579;SHT31;69939;52.402;6.608;2023-05-23T06:40:32;11.88;91.00
80579;SHT31;69939;52.402;6.608;2023-05-23T06:42:59;11.98;90.96
80579;SHT31;69939;52.402;6.608;2023-05-23T06:45:26;11.94;90.89
80579;SHT31;69939;52.402;6.608;2023-05-23T06:47:53;11.99;90.84
80579;SHT31;69939;52.402;6.608;2023-05-23T06:50:19;11.99;90.74
80579;SHT31;69939;52.402;6.608;2023-05-23T06:52:46;12.01;90.65
80579;SHT31;69939;52.402;6.608;2023-05-23T06:55:14;11.95;90.72
80579;SHT31;69939;52.402;6.608;2023-05-23T06:57:48;11.88;90.78
80579;SHT31;69939;52.402;6.608;2023-05-23T07:00:16;11.88;91.34
80579;SHT31;69939;52.402;6.608;2023-05-23T07:02:43;11.77;90.34
80579;SHT31;69939;52.402;6.608;2023-05-23T07:05:12;11.76;89.72
80579;SHT31;69939;52.402;6.608;2023-05-23T07:07:39;11.84;89.84
80579;SHT31;69939;52.402;6.608;2023-05-23T07:10:07;11.76;90.46
80579;SHT31;69939;52.402;6.608;2023-05-23T07:12:35;11.80;90.13
80579;SHT31;69939;52.402;6.608;2023-05-23T07:15:03;11.84;90.89
80579;SHT31;69939;52.402;6.608;2023-05-23T07:17:31;11.62;89.91
80579;SHT31;69939;52.402;6.608;2023-05-23T07:19:57;11.67;90.06
80579;SHT31;69939;52.402;6.608;2023-05-23T07:22:24;11.67;89.68
80579;SHT31;69939;52.402;6.608;2023-05-23T07:24:53;11.59;89.97
80579;SHT31;69939;52.402;6.608;2023-05-23T07:27:22;11.50;89.02
80579;SHT31;69939;52.402;6.608;2023-05-23T07:29:49;11.59;88.89
80579;SHT31;69939;52.402;6.608;2023-05-23T07:32:20;11.69;88.53
80579;SHT31;69939;52.402;6.608;2023-05-23T07:34:46;12.01;87.24
80579;SHT31;69939;52.402;6.608;2023-05-23T07:37:13;12.01;86.16
80579;SHT31;69939;52.402;6.608;2023-05-23T07:39:42;12.18;86.05
80579;SHT31;69939;52.402;6.608;2023-05-23T07:42:09;12.35;85.39
80579;SHT31;69939;52.402;6.608;2023-05-23T07:44:38;12.36;83.65
80579;SHT31;69939;52.402;6.608;2023-05-23T07:47:06;12.63;83.18
80579;SHT31;69939;52.402;6.608;2023-05-23T07:49:34;12.66;82.04
80579;SHT31;69939;52.402;6.608;2023-05-23T07:52:01;12.91;81.14
80579;SHT31;69939;52.402;6.608;2023-05-23T07:54:28;12.87;80.97
80579;SHT31;69939;52.402;6.608;2023-05-23T07:56:55;12.84;81.32
80579;SHT31;69939;52.402;6.608;2023-05-23T07:59:21;12.90;81.04
80579;SHT31;69939;52.402;6.608;2023-05-23T08:01:48;12.87;80.78
80579;SHT31;69939;52.402;6.608;2023-05-23T08:04:20;13.01;80.41
80579;SHT31;69939;52.402;6.608;2023-05-23T08:06:48;12.87;81.45
80579;SHT31;69939;52.402;6.608;2023-05-23T08:09:15;12.63;80.92
80579;SHT31;69939;52.402;6.608;2023-05-23T08:11:42;12.50;82.38
80579;SHT31;69939;52.402;6.608;2023-05-23T08:14:10;12.32;82.17
80579;SHT31;69939;52.402;6.608;2023-05-23T08:16:37;12.48;82.49
80579;SHT31;69939;52.402;6.608;2023-05-23T08:19:05;12.43;82.15
80579;SHT31;69939;52.402;6.608;2023-05-23T08:21:34;12.82;83.03
80579;SHT31;69939;52.402;6.608;2023-05-23T08:24:03;13.22;79.14
80579;SHT31;69939;52.402;6.608;2023-05-23T08:26:30;13.27;77.50
80579;SHT31;69939;52.402;6.608;2023-05-23T08:28:59;12.93;77.90
80579;SHT31;69939;52.402;6.608;2023-05-23T08:31:28;13.42;77.43
80579;SHT31;69939;52.402;6.608;2023-05-23T08:33:58;13.41;75.20
80579;SHT31;69939;52.402;6.608;2023-05-23T08:36:25;13.89;73.41
80579;SHT31;69939;52.402;6.608;2023-05-23T08:38:52;14.12;73.26
80579;SHT31;69939;52.402;6.608;2023-05-23T08:41:22;13.68;73.33
80579;SHT31;69939;52.402;6.608;2023-05-23T08:43:51;13.59;74.74
80579;SHT31;69939;52.402;6.608;2023-05-23T08:46:18;13.44;74.67
80579;SHT31;69939;52.402;6.608;2023-05-23T08:48:50;13.25;76.15
80579;SHT31;69939;52.402;6.608;2023-05-23T08:51:20;13.20;77.13
80579;SHT31;69939;52.402;6.608;2023-05-23T08:53:48;13.41;76.51
80579;SHT31;69939;52.402;6.608;2023-05-23T08:56:18;13.83;74.85
80579;SHT31;69939;52.402;6.608;2023-05-23T08:58:47;13.96;71.77
80579;SHT31;69939;52.402;6.608;2023-05-23T09:01:15;14.04;71.63
80579;SHT31;69939;52.402;6.608;2023-05-23T09:03:47;14.75;70.47
80579;SHT31;69939;52.402;6.608;2023-05-23T09:06:15;14.45;71.75
80579;SHT31;69939;52.402;6.608;2023-05-23T09:08:43;13.79;70.83
80579;SHT31;69939;52.402;6.608;2023-05-23T09:11:10;14.28;70.64
80579;SHT31;69939;52.402;6.608;2023-05-23T09:13:38;14.34;70.79
80579;SHT31;69939;52.402;6.608;2023-05-23T09:16:09;14.02;69.94
80579;SHT31;69939;52.402;6.608;2023-05-23T09:18:38;13.96;71.06
80579;SHT31;69939;52.402;6.608;2023-05-23T09:21:06;13.63;72.64
80579;SHT31;69939;52.402;6.608;2023-05-23T09:23:35;13.86;72.20
80579;SHT31;69939;52.402;6.608;2023-05-23T09:26:05;14.00;71.24
80579;SHT31;69939;52.402;6.608;2023-05-23T09:28:33;14.02;72.18
80579;SHT31;69939;52.402;6.608;2023-05-23T09:31:02;14.60;70.54
80579;SHT31;69939;52.402;6.608;2023-05-23T09:33:38;14.16;69.06
80579;SHT31;69939;52.402;6.608;2023-05-23T09:36:17;14.82;67.59
80579;SHT31;69939;52.402;6.608;2023-05-23T09:38:47;15.16;65.93
80579;SHT31;69939;52.402;6.608;2023-05-23T09:41:18;16.53;63.11
80579;SHT31;69939;52.402;6.608;2023-05-23T09:43:50;16.68;61.46
80579;SHT31;69939;52.402;6.608;2023-05-23T09:46:19;16.56;62.35
80579;SHT31;69939;52.402;6.608;2023-05-23T09:48:49;15.88;64.03
80579;SHT31;69939;52.402;6.608;2023-05-23T09:51:20;16.64;62.34
80579;SHT31;69939;52.402;6.608;2023-05-23T09:53:50;17.70;59.86
80579;SHT31;69939;52.402;6.608;2023-05-23T09:56:18;17.23;58.37
80579;SHT31;69939;52.402;6.608;2023-05-23T09:58:46;16.49;61.11
80579;SHT31;69939;52.402;6.608;2023-05-23T10:01:15;17.45;58.33
80579;SHT31;69939;52.402;6.608;2023-05-23T10:03:45;17.28;58.89
80579;SHT31;69939;52.402;6.608;2023-05-23T10:06:24;16.46;61.94
80579;SHT31;69939;52.402;6.608;2023-05-23T10:08:56;16.91;58.20
80579;SHT31;69939;52.402;6.608;2023-05-23T10:14:56;16.32;61.11
80579;SHT31;69939;52.402;6.608;2023-05-23T10:17:30;16.19;60.76
80579;SHT31;69939;52.402;6.608;2023-05-23T10:20:09;15.96;62.14
80579;SHT31;69939;52.402;6.608;2023-05-23T10:22:37;15.71;62.94
80579;SHT31;69939;52.402;6.608;2023-05-23T10:25:05;15.33;63.77
80579;SHT31;69939;52.402;6.608;2023-05-23T10:27:34;16.01;62.35
80579;SHT31;69939;52.402;6.608;2023-05-23T10:30:03;16.91;61.05
80579;SHT31;69939;52.402;6.608;2023-05-23T10:32:32;16.98;60.17
80579;SHT31;69939;52.402;6.608;2023-05-23T10:35:06;17.78;58.57
80579;SHT31;69939;52.402;6.608;2023-05-23T10:37:48;16.39;58.90
80579;SHT31;69939;52.402;6.608;2023-05-23T10:40:36;17.80;54.80
80579;SHT31;69939;52.402;6.608;2023-05-23T10:43:19;18.08;55.41
80579;SHT31;69939;52.402;6.608;2023-05-23T10:45:54;16.34;58.03
80579;SHT31;69939;52.402;6.608;2023-05-23T10:48:30;16.22;57.62
80579;SHT31;69939;52.402;6.608;2023-05-23T10:51:05;18.00;55.87
80579;SHT31;69939;52.402;6.608;2023-05-23T10:53:34;17.25;56.12
80579;SHT31;69939;52.402;6.608;2023-05-23T10:56:04;17.53;54.87
80579;SHT31;69939;52.402;6.608;2023-05-23T10:58:33;17.36;56.68
80579;SHT31;69939;52.402;6.608;2023-05-23T11:01:02;17.51;55.55
80579;SHT31;69939;52.402;6.608;2023-05-23T11:03:33;17.11;54.45
80579;SHT31;69939;52.402;6.608;2023-05-23T11:06:01;18.09;53.43
80579;SHT31;69939;52.402;6.608;2023-05-23T11:08:37;17.36;54.36
80579;SHT31;69939;52.402;6.608;2023-05-23T11:11:07;17.65;55.39
80579;SHT31;69939;52.402;6.608;2023-05-23T11:13:57;17.23;55.53
80579;SHT31;69939;52.402;6.608;2023-05-23T11:16:27;17.09;56.15
80579;SHT31;69939;52.402;6.608;2023-05-23T11:19:21;16.98;56.45
80579;SHT31;69939;52.402;6.608;2023-05-23T11:21:53;16.87;59.54
80579;SHT31;69939;52.402;6.608;2023-05-23T11:24:47;17.73;55.45
80579;SHT31;69939;52.402;6.608;2023-05-23T11:27:15;17.05;56.00
80579;SHT31;69939;52.402;6.608;2023-05-23T11:29:45;17.12;57.13
80579;SHT31;69939;52.402;6.608;2023-05-23T11:32:22;16.65;57.21
80579;SHT31;69939;52.402;6.608;2023-05-23T11:34:49;17.63;55.66
80579;SHT31;69939;52.402;6.608;2023-05-23T11:37:17;18.21;52.41
80579;SHT31;69939;52.402;6.608;2023-05-23T11:39:45;17.29;55.62
80579;SHT31;69939;52.402;6.608;2023-05-23T11:42:12;17.38;56.72
80579;SHT31;69939;52.402;6.608;2023-05-23T11:44:39;16.36;57.13
80579;SHT31;69939;52.402;6.608;2023-05-23T11:47:06;17.33;55.69
80579;SHT31;69939;52.402;6.608;2023-05-23T11:49:34;17.86;52.68
80579;SHT31;69939;52.402;6.608;2023-05-23T11:52:03;18.38;51.88
80579;SHT31;69939;52.402;6.608;2023-05-23T11:54:33;17.81;52.62
80579;SHT31;69939;52.402;6.608;2023-05-23T11:57:01;18.00;54.09
80579;SHT31;69939;52.402;6.608;2023-05-23T11:59:29;18.11;50.24
80579;SHT31;69939;52.402;6.608;2023-05-23T12:01:56;18.81;49.68
80579;SHT31;69939;52.402;6.608;2023-05-23T12:04:25;18.69;52.42
80579;SHT31;69939;52.402;6.608;2023-05-23T12:06:53;17.80;52.10
80579;SHT31;69939;52.402;6.608;2023-05-23T12:09:20;17.26;54.17
80579;SHT31;69939;52.402;6.608;2023-05-23T12:11:47;17.26;55.44
80579;SHT31;69939;52.402;6.608;2023-05-23T12:14:19;17.19;54.83
80579;SHT31;69939;52.402;6.608;2023-05-23T12:16:46;17.70;55.31
80579;SHT31;69939;52.402;6.608;2023-05-23T12:19:15;17.87;55.71
80579;SHT31;69939;52.402;6.608;2023-05-23T12:21:44;18.24;52.35
80579;SHT31;69939;52.402;6.608;2023-05-23T12:24:13;18.07;51.94
80579;SHT31;69939;52.402;6.608;2023-05-23T12:26:46;16.78;53.36
80579;SHT31;69939;52.402;6.608;2023-05-23T12:29:17;16.49;53.98
80579;SHT31;69939;52.402;6.608;2023-05-23T12:31:48;17.49;52.69
80579;SHT31;69939;52.402;6.608;2023-05-23T12:34:16;18.52;52.54
80579;SHT31;69939;52.402;6.608;2023-05-23T12:36:43;17.56;52.98
80579;SHT31;69939;52.402;6.608;2023-05-23T12:39:13;16.85;54.91
80579;SHT31;69939;52.402;6.608;2023-05-23T12:41:44;16.49;55.47
80579;SHT31;69939;52.402;6.608;2023-05-23T12:44:15;15.82;57.61
80579;SHT31;69939;52.402;6.608;2023-05-23T12:46:42;16.19;56.97
80579;SHT31;69939;52.402;6.608;2023-05-23T12:49:09;16.20;54.97
80579;SHT31;69939;52.402;6.608;2023-05-23T12:51:37;16.13;55.11
80579;SHT31;69939;52.402;6.608;2023-05-23T12:54:03;18.31;51.28
80579;SHT31;69939;52.402;6.608;2023-05-23T12:56:32;17.35;54.33
80579;SHT31;69939;52.402;6.608;2023-05-23T12:58:59;16.85;55.07
80579;SHT31;69939;52.402;6.608;2023-05-23T13:01:28;16.52;56.53
80579;SHT31;69939;52.402;6.608;2023-05-23T13:03:58;17.51;52.82
80579;SHT31;69939;52.402;6.608;2023-05-23T13:06:25;19.18;48.72
80579;SHT31;69939;52.402;6.608;2023-05-23T13:08:52;18.96;49.10
80579;SHT31;69939;52.402;6.608;2023-05-23T13:11:19;18.56;49.91
80579;SHT31;69939;52.402;6.608;2023-05-23T13:13:47;19.20;47.10
80579;SHT31;69939;52.402;6.608;2023-05-23T13:16:14;18.86;51.70
80579;SHT31;69939;52.402;6.608;2023-05-23T13:18:42;19.21;50.67
80579;SHT31;69939;52.402;6.608;2023-05-23T13:21:09;17.86;51.86
80579;SHT31;69939;52.402;6.608;2023-05-23T13:23:35;18.96;49.90
80579;SHT31;69939;52.402;6.608;2023-05-23T13:26:03;17.97;49.03
80579;SHT31;69939;52.402;6.608;2023-05-23T13:28:32;18.90;50.22
80579;SHT31;69939;52.402;6.608;2023-05-23T13:30:59;18.26;53.49
80579;SHT31;69939;52.402;6.608;2023-05-23T13:33:27;16.85;52.57
80579;SHT31;69939;52.402;6.608;2023-05-23T13:35:58;16.12;54.15
80579;SHT31;69939;52.402;6.608;2023-05-23T13:38:25;17.94;52.79
80579;SHT31;69939;52.402;6.608;2023-05-23T13:40:53;19.69;48.94
80579;SHT31;69939;52.402;6.608;2023-05-23T13:43:20;18.97;50.29
80579;SHT31;69939;52.402;6.608;2023-05-23T13:45:47;18.73;51.61
80579;SHT31;69939;52.402;6.608;2023-05-23T13:48:13;17.05;52.73
80579;SHT31;69939;52.402;6.608;2023-05-23T13:50:41;16.27;56.54
80579;SHT31;69939;52.402;6.608;2023-05-23T13:53:11;18.79;50.17
80579;SHT31;69939;52.402;6.608;2023-05-23T13:55:41;18.56;49.87
80579;SHT31;69939;52.402;6.608;2023-05-23T13:58:09;18.29;49.77
80579;SHT31;69939;52.402;6.608;2023-05-23T14:00:36;17.18;53.25
80579;SHT31;69939;52.402;6.608;2023-05-23T14:03:03;16.87;53.56
80579;SHT31;69939;52.402;6.608;2023-05-23T14:05:29;16.33;54.47
80579;SHT31;69939;52.402;6.608;2023-05-23T14:07:56;16.36;52.93
80579;SHT31;69939;52.402;6.608;2023-05-23T14:10:24;17.77;51.89
80579;SHT31;69939;52.402;6.608;2023-05-23T14:12:51;18.69;51.27
80579;SHT31;69939;52.402;6.608;2023-05-23T14:15:17;19.45;47.59
80579;SHT31;69939;52.402;6.608;2023-05-23T14:17:47;19.85;46.54
80579;SHT31;69939;52.402;6.608;2023-05-23T14:20:19;18.56;49.11
80579;SHT31;69939;52.402;6.608;2023-05-23T14:22:46;16.23;53.19
80579;SHT31;69939;52.402;6.608;2023-05-23T14:25:13;16.04;53.47
80579;SHT31;69939;52.402;6.608;2023-05-23T14:27:41;16.63;52.16
80579;SHT31;69939;52.402;6.608;2023-05-23T14:30:09;18.15;48.64
80579;SHT31;69939;52.402;6.608;2023-05-23T14:32:37;18.36;48.16
80579;SHT31;69939;52.402;6.608;2023-05-23T14:35:05;20.21;44.22
80579;SHT31;69939;52.402;6.608;2023-05-23T14:37:33;20.14;44.00
80579;SHT31;69939;52.402;6.608;2023-05-23T14:40:00;18.41;45.78
80579;SHT31;69939;52.402;6.608;2023-05-23T14:42:28;17.87;47.48
80579;SHT31;69939;52.402;6.608;2023-05-23T14:44:58;17.69;47.39
80579;SHT31;69939;52.402;6.608;2023-05-23T14:47:24;19.35;45.55
80579;SHT31;69939;52.402;6.608;2023-05-23T14:49:55;18.38;46.73
80579;SHT31;69939;52.402;6.608;2023-05-23T14:52:21;18.07;49.88
80579;SHT31;69939;52.402;6.608;2023-05-23T14:54:48;18.02;51.67
80579;SHT31;69939;52.402;6.608;2023-05-23T14:57:15;19.18;49.58
80579;SHT31;69939;52.402;6.608;2023-05-23T14:59:41;18.67;47.16
80579;SHT31;69939;52.402;6.608;2023-05-23T15:02:12;17.93;47.33
80579;SHT31;69939;52.402;6.608;2023-05-23T15:04:39;18.26;48.59
80579;SHT31;69939;52.402;6.608;2023-05-23T15:07:06;18.34;47.70
80579;SHT31;69939;52.402;6.608;2023-05-23T15:09:33;19.14;45.71
80579;SHT31;69939;52.402;6.608;2023-05-23T15:11:59;19.22;46.73
80579;SHT31;69939;52.402;6.608;2023-05-23T15:14:26;18.63;48.29
80579;SHT31;69939;52.402;6.608;2023-05-23T15:16:56;18.09;47.58
80579;SHT31;69939;52.402;6.608;2023-05-23T15:19:33;18.29;47.35
80579;SHT31;69939;52.402;6.608;2023-05-23T15:22:04;18.01;47.48
80579;SHT31;69939;52.402;6.608;2023-05-23T15:24:31;17.80;49.17
80579;SHT31;69939;52.402;6.608;2023-05-23T15:26:57;18.29;48.27
80579;SHT31;69939;52.402;6.608;2023-05-23T15:29:24;17.83;49.51
80579;SHT31;69939;52.402;6.608;2023-05-23T15:31:51;17.11;49.06
80579;SHT31;69939;52.402;6.608;2023-05-23T15:34:19;17.70;49.61
80579;SHT31;69939;52.402;6.608;2023-05-23T15:36:47;17.11;49.57
80579;SHT31;69939;52.402;6.608;2023-05-23T15:39:14;16.95;51.05
80579;SHT31;69939;52.402;6.608;2023-05-23T15:41:44;17.35;48.02
80579;SHT31;69939;52.402;6.608;2023-05-23T15:44:13;16.65;51.55